Time;durP1;ratioP1;P1;durP2;ratioP2;P2;SDS_P1;SDS_P2;PMS_P1;PMS_P2;Temp;Humidity;BMP_temperature;BMP_pressure;BME280_temperature;BME280_humidity;BME280_pressure;Samples;Min_cycle;Max_cycle;Signal;HPM_P1;HPM_P2
2023/07/07 00:02:03;;;;;;;;;21.00;16.33;;;;;22.01;50.86;101329.52;110175;1250;20765;-40
2023/07/07 00:04:31;;;;;;;;;17.50;16.50;;;;;21.98;50.88;101329.11;110169;1256;19906;-40
2023/07/07 00:06:58;;;;;;;;;17.00;15.00;;;;;21.90;50.78;101337.75;110271;1264;18700;-40
2023/07/07 00:09:26;;;;;;;;;19.00;18.00;;;;;21.85;50.52;101335.38;110256;1256;19302;-40
2023/07/07 00:11:53;;;;;;;;;17.00;16.00;;;;;21.77;50.60;101335.89;110218;1265;19990;-41
2023/07/07 00:14:21;;;;;;;;;19.50;17.00;;;;;21.72;50.38;101337.48;110137;1250;20173;-40
2023/07/07 00:16:48;;;;;;;;;24.00;19.00;;;;;21.69;50.42;101341.55;110177;1249;21234;-40
2023/07/07 00:19:16;;;;;;;;;20.00;18.00;;;;;21.58;50.20;101343.80;110194;1264;18581;-40
2023/07/07 00:21:43;;;;;;;;;19.00;18.50;;;;;21.52;50.42;101342.64;110220;1250;22140;-40
2023/07/07 00:24:10;;;;;;;;;18.00;18.00;;;;;21.55;50.17;101344.63;110179;1250;21979;-40
2023/07/07 00:26:38;;;;;;;;;20.00;18.00;;;;;21.57;50.08;101345.14;110186;1250;18587;-40
2023/07/07 00:29:05;;;;;;;;;20.00;17.00;;;;;21.53;50.17;101346.30;110192;1251;20128;-40
2023/07/07 00:31:33;;;;;;;;;20.00;18.00;;;;;21.42;50.07;101347.91;110186;1264;19446;-40
2023/07/07 00:34:00;;;;;;;;;17.00;17.00;;;;;21.40;50.31;101350.86;110245;1265;18569;-40
2023/07/07 00:36:28;;;;;;;;;20.00;20.00;;;;;21.38;50.55;101354.38;110240;1250;18685;-41
2023/07/07 00:38:55;;;;;;;;;20.00;17.00;;;;;21.32;50.96;101351.50;110173;1260;19313;-40
2023/07/07 00:41:22;;;;;;;;;23.00;21.00;;;;;21.33;51.02;101360.28;110173;1264;18913;-39
2023/07/07 00:43:50;;;;;;;;;21.00;20.00;;;;;21.31;51.39;101356.88;110263;1250;23845;-40
2023/07/07 00:46:17;;;;;;;;;22.00;18.00;;;;;21.30;51.59;101364.77;110186;1264;20494;-40
2023/07/07 00:48:45;;;;;;;;;21.00;17.00;;;;;21.23;52.12;101361.77;110173;1250;18715;-40
2023/07/07 00:51:12;;;;;;;;;21.00;20.00;;;;;21.22;52.31;101360.90;110191;1256;20173;-40
2023/07/07 00:53:40;;;;;;;;;22.00;19.50;;;;;21.27;52.42;101360.55;110177;1256;20884;-40
2023/07/07 00:56:07;;;;;;;;;24.00;23.00;;;;;21.25;52.76;101367.16;110241;1250;19992;-40
2023/07/07 00:58:34;;;;;;;;;20.00;18.00;;;;;21.17;52.98;101365.65;110236;1264;18743;-40
2023/07/07 01:01:02;;;;;;;;;26.00;24.00;;;;;21.21;53.02;101367.95;110245;1256;20672;-40
2023/07/07 01:03:29;;;;;;;;;27.00;23.00;;;;;21.21;52.81;101364.66;110205;1250;19991;-40
2023/07/07 01:05:57;;;;;;;;;23.00;23.00;;;;;21.21;52.85;101362.66;110178;1264;18735;-40
2023/07/07 01:08:24;;;;;;;;;20.00;20.00;;;;;21.18;53.10;101366.85;110091;1265;21009;-40
2023/07/07 01:10:51;;;;;;;;;22.00;19.00;;;;;21.19;53.22;101371.77;110212;1264;22143;-40
2023/07/07 01:13:19;;;;;;;;;20.00;18.33;;;;;21.22;53.08;101372.40;110222;1256;20039;-40
2023/07/07 01:15:47;;;;;;;;;20.50;19.00;;;;;21.19;53.23;101372.37;110200;1250;20772;-39
2023/07/07 01:18:14;;;;;;;;;23.50;20.50;;;;;21.12;53.26;101379.27;110244;1250;20032;-40
2023/07/07 01:20:42;;;;;;;;;22.00;19.00;;;;;21.13;52.97;101380.33;110258;1256;20048;-41
2023/07/07 01:23:10;;;;;;;;;23.00;21.00;;;;;21.11;53.00;101376.30;110284;1264;19415;-40
2023/07/07 01:25:38;;;;;;;;;22.33;20.33;;;;;21.09;52.83;101377.30;110256;1264;18575;-40
2023/07/07 01:28:07;;;;;;;;;20.00;19.00;;;;;21.00;53.00;101376.95;110226;1264;18703;-40
2023/07/07 01:30:35;;;;;;;;;21.00;19.00;;;;;21.00;52.98;101375.12;110249;1264;19180;-40
2023/07/07 01:33:02;;;;;;;;;22.00;18.00;;;;;20.94;52.85;101371.24;110177;1250;20477;-41
2023/07/07 01:35:29;;;;;;;;;20.00;17.00;;;;;21.00;52.87;101370.59;110220;1256;21942;-41
2023/07/07 01:37:57;;;;;;;;;18.00;18.00;;;;;20.96;52.79;101370.75;110253;1249;20797;-41
2023/07/07 01:40:24;;;;;;;;;19.00;18.00;;;;;20.97;52.79;101376.33;110252;1250;20011;-40
2023/07/07 01:42:52;;;;;;;;;17.67;17.67;;;;;20.92;52.80;101374.30;110278;1257;18762;-40
2023/07/07 01:45:19;;;;;;;;;23.00;20.00;;;;;20.88;52.92;101373.33;110260;1250;20749;-41
2023/07/07 01:47:46;;;;;;;;;20.67;18.00;;;;;20.85;53.30;101368.73;110241;1250;20057;-41
2023/07/07 01:50:14;;;;;;;;;20.00;20.00;;;;;20.86;52.97;101369.88;110245;1250;21405;-41
2023/07/07 01:52:41;;;;;;;;;27.00;22.00;;;;;20.86;53.06;101370.83;110183;1250;20811;-41
2023/07/07 01:55:09;;;;;;;;;16.50;16.00;;;;;20.89;53.20;101373.06;110170;1250;22761;-41
2023/07/07 01:57:36;;;;;;;;;17.00;16.00;;;;;20.87;53.17;101374.66;110180;1260;18760;-41
2023/07/07 02:00:03;;;;;;;;;19.00;17.00;;;;;20.79;53.37;101376.23;110190;1264;19508;-41
2023/07/07 02:02:31;;;;;;;;;26.00;20.00;;;;;20.67;53.59;101375.14;110251;1250;21967;-41
2023/07/07 02:04:58;;;;;;;;;21.00;20.67;;;;;20.65;53.39;101376.50;110203;1264;18900;-41
2023/07/07 02:07:26;;;;;;;;;20.00;19.00;;;;;20.61;53.16;101383.79;110286;1256;20691;-41
2023/07/07 02:09:53;;;;;;;;;24.00;22.00;;;;;20.55;53.25;101381.09;110257;1256;18567;-41
2023/07/07 02:12:21;;;;;;;;;23.00;21.50;;;;;20.58;53.35;101386.64;110130;1249;18776;-41
2023/07/07 02:14:48;;;;;;;;;20.00;19.00;;;;;20.55;53.33;101383.50;110225;1250;20757;-41
2023/07/07 02:17:16;;;;;;;;;22.00;20.00;;;;;20.56;53.75;101383.58;110223;1249;20059;-40
2023/07/07 02:19:44;;;;;;;;;25.00;23.00;;;;;20.54;53.89;101393.55;110283;1249;20127;-41
2023/07/07 02:22:11;;;;;;;;;23.00;20.00;;;;;20.52;53.83;101387.80;110205;1250;20785;-41
2023/07/07 02:24:38;;;;;;;;;20.00;19.00;;;;;20.51;53.83;101390.29;110191;1256;19895;-40
2023/07/07 02:27:07;;;;;;;;;23.00;22.50;;;;;20.44;54.22;101392.20;110206;1264;18664;-40
2023/07/07 02:29:35;;;;;;;;;22.00;22.00;;;;;20.47;54.27;101387.96;110251;1264;19368;-40
2023/07/07 02:32:02;;;;;;;;;22.00;21.33;;;;;20.44;54.29;101391.65;110198;1264;20103;-41
2023/07/07 02:34:30;;;;;;;;;20.00;20.00;;;;;20.46;54.53;101394.40;110187;1250;21327;-41
2023/07/07 02:36:58;;;;;;;;;20.00;20.00;;;;;20.53;54.60;101394.71;110174;1249;20627;-40
2023/07/07 02:39:26;;;;;;;;;28.00;22.00;;;;;20.51;54.72;101395.36;110186;1264;18767;-41
2023/07/07 02:41:53;;;;;;;;;20.00;19.00;;;;;20.53;54.78;101397.29;110195;1264;18733;-40
2023/07/07 02:44:20;;;;;;;;;22.00;20.00;;;;;20.49;54.90;101390.70;110187;1265;22537;-41
2023/07/07 02:46:49;;;;;;;;;20.00;20.00;;;;;20.40;55.29;101386.51;110222;1250;18619;-41
2023/07/07 02:49:18;;;;;;;;;20.67;19.67;;;;;20.47;55.04;101396.13;110190;1265;18919;-41
2023/07/07 02:51:45;;;;;;;;;20.00;19.00;;;;;20.45;55.29;101393.95;110194;1256;20860;-41
2023/07/07 02:54:12;;;;;;;;;19.00;19.00;;;;;20.42;55.25;101394.99;110190;1250;18633;-41
2023/07/07 02:56:40;;;;;;;;;22.50;20.00;;;;;20.38;55.39;101393.96;110195;1250;20145;-41
2023/07/07 02:59:07;;;;;;;;;25.00;22.00;;;;;20.39;55.74;101391.33;110182;1256;20714;-41
2023/07/07 03:01:35;;;;;;;;;23.00;21.00;;;;;20.44;55.65;101393.02;110194;1264;18682;-41
2023/07/07 03:04:02;;;;;;;;;17.00;17.00;;;;;20.50;55.38;101391.27;110202;1257;20306;-41
2023/07/07 03:06:29;;;;;;;;;25.00;19.50;;;;;20.51;55.48;101399.14;110187;1256;23249;-40
2023/07/07 03:08:57;;;;;;;;;19.50;17.00;;;;;20.47;55.55;101402.24;110238;1250;20001;-39
2023/07/07 03:11:24;;;;;;;;;19.50;19.00;;;;;20.42;55.70;101405.00;110186;1250;20075;-40
2023/07/07 03:13:52;;;;;;;;;19.50;19.00;;;;;20.38;55.83;101406.09;110218;1250;20892;-41
2023/07/07 03:16:21;;;;;;;;;24.00;20.00;;;;;20.38;55.87;101412.63;110187;1260;20046;-41
2023/07/07 03:18:48;;;;;;;;;19.00;17.00;;;;;20.33;56.06;101413.20;110246;1264;18888;-41
2023/07/07 03:21:16;;;;;;;;;20.00;19.00;;;;;20.31;56.21;101423.77;110139;1264;19405;-41
2023/07/07 03:23:43;;;;;;;;;28.50;28.00;;;;;20.31;56.30;101420.61;110110;1250;20703;-41
2023/07/07 03:26:11;;;;;;;;;33.50;31.50;;;;;20.32;56.29;101426.33;110113;1264;20094;-41
2023/07/07 03:28:38;;;;;;;;;35.00;30.00;;;;;20.30;56.30;101430.19;110250;1264;19333;-41
2023/07/07 03:31:06;;;;;;;;;25.67;25.33;;;;;20.28;56.58;101433.96;110271;1264;19926;-41
2023/07/07 03:33:33;;;;;;;;;28.00;25.33;;;;;20.26;56.55;101438.34;110282;1250;20141;-41
2023/07/07 03:36:01;;;;;;;;;26.00;25.00;;;;;20.24;56.60;101437.66;110213;1264;19381;-41
2023/07/07 03:38:28;;;;;;;;;27.00;23.00;;;;;20.15;56.90;101436.21;110173;1250;22691;-41
2023/07/07 03:40:55;;;;;;;;;23.00;22.00;;;;;20.18;56.79;101437.61;110187;1264;19014;-41
2023/07/07 03:43:23;;;;;;;;;25.50;24.50;;;;;20.15;57.02;101438.57;110190;1257;20633;-41
2023/07/07 03:45:50;;;;;;;;;24.00;22.50;;;;;20.17;57.09;101444.98;110193;1256;20056;-41
2023/07/07 03:48:17;;;;;;;;;29.00;26.00;;;;;20.17;57.07;101444.98;110192;1264;18683;-40
2023/07/07 03:50:45;;;;;;;;;31.00;28.00;;;;;20.18;57.08;101443.90;110156;1256;20786;-41
2023/07/07 03:53:12;;;;;;;;;26.00;24.00;;;;;20.19;57.06;101442.75;110183;1249;19943;-41
2023/07/07 03:55:40;;;;;;;;;24.50;22.00;;;;;20.26;56.94;101440.92;110188;1264;18744;-41
2023/07/07 03:58:07;;;;;;;;;25.00;23.00;;;;;20.26;57.05;101441.25;110186;1264;20643;-41
2023/07/07 04:00:34;;;;;;;;;29.00;28.00;;;;;20.28;57.02;101443.98;110204;1264;18522;-41
2023/07/07 04:03:02;;;;;;;;;26.00;26.00;;;;;20.28;56.89;101448.52;110187;1249;22783;-41
2023/07/07 04:05:29;;;;;;;;;34.00;29.33;;;;;20.25;57.14;101444.45;110187;1250;22148;-41
2023/07/07 04:07:57;;;;;;;;;29.50;27.50;;;;;20.16;57.26;101446.44;110192;1249;22767;-41
2023/07/07 04:10:24;;;;;;;;;31.00;28.00;;;;;20.18;57.56;101453.77;110193;1256;19990;-41
2023/07/07 04:12:52;;;;;;;;;38.00;34.00;;;;;20.16;57.41;101453.77;110204;1264;19336;-41
2023/07/07 04:15:20;;;;;;;;;31.67;31.00;;;;;20.15;57.64;101455.10;110191;1249;20653;-41
2023/07/07 04:17:47;;;;;;;;;34.00;32.00;;;;;20.22;57.59;101456.98;110193;1264;18730;-41
2023/07/07 04:20:14;;;;;;;;;26.00;26.00;;;;;20.28;57.31;101460.67;110157;1250;22293;-41
2023/07/07 04:22:42;;;;;;;;;22.00;21.33;;;;;20.34;57.14;101460.10;110225;1250;20018;-41
2023/07/07 04:25:09;;;;;;;;;22.00;22.00;;;;;20.32;57.40;101465.42;110180;1265;18968;-40
2023/07/07 04:27:37;;;;;;;;;23.00;22.00;;;;;20.34;57.56;101467.20;110172;1264;19359;-42
2023/07/07 04:30:04;;;;;;;;;22.00;19.00;;;;;20.34;57.42;101470.66;110171;1264;20310;-41
2023/07/07 04:32:32;;;;;;;;;21.00;18.00;;;;;20.35;57.54;101472.84;110200;1264;19226;-41
2023/07/07 04:35:01;;;;;;;;;20.00;19.00;;;;;20.38;57.52;101480.52;110203;1249;22024;-41
2023/07/07 04:37:29;;;;;;;;;19.00;17.00;;;;;20.36;57.59;101480.74;110233;1249;22714;-41
2023/07/07 04:39:56;;;;;;;;;32.50;30.50;;;;;20.39;57.19;101481.32;110243;1249;22022;-41
2023/07/07 04:42:23;;;;;;;;;32.50;28.50;;;;;20.42;57.18;101488.26;110282;1264;19373;-41
2023/07/07 04:44:51;;;;;;;;;33.50;29.00;;;;;20.42;57.19;101486.29;110212;1265;18592;-41
2023/07/07 04:47:18;;;;;;;;;31.00;31.00;;;;;20.39;57.50;101493.27;110163;1249;20191;-41
2023/07/07 04:49:46;;;;;;;;;23.00;22.00;;;;;20.39;57.44;101494.20;110171;1264;19325;-41
2023/07/07 04:52:13;;;;;;;;;19.00;19.00;;;;;20.44;57.42;101491.55;110190;1264;22828;-41
2023/07/07 04:54:40;;;;;;;;;23.00;22.00;;;;;20.43;57.47;101493.23;110156;1264;18746;-42
2023/07/07 04:57:08;;;;;;;;;17.00;16.00;;;;;20.48;57.43;101498.18;110183;1249;20921;-41
2023/07/07 04:59:36;;;;;;;;;22.00;18.00;;;;;20.40;57.78;101497.63;110188;1265;22733;-40
2023/07/07 05:02:04;;;;;;;;;19.00;17.00;;;;;20.44;57.98;101504.57;110180;1264;19851;-40
2023/07/07 05:04:31;;;;;;;;;19.50;18.00;;;;;20.50;57.82;101510.15;110203;1264;19422;-41
2023/07/07 05:06:59;;;;;;;;;20.50;17.00;;;;;20.53;58.02;101511.86;110180;1249;19943;-41
2023/07/07 05:09:26;;;;;;;;;18.50;16.50;;;;;20.35;58.25;101512.58;110201;1256;21462;-42
2023/07/07 05:11:53;;;;;;;;;18.00;18.00;;;;;20.19;58.86;101514.61;110194;1264;19204;-41
2023/07/07 05:14:21;;;;;;;;;14.00;13.67;;;;;20.32;58.67;101515.05;110186;1249;23062;-41
2023/07/07 05:16:48;;;;;;;;;13.00;13.00;;;;;20.58;58.43;101509.77;110206;1264;18737;-41
2023/07/07 05:19:16;;;;;;;;;16.00;14.00;;;;;20.78;57.85;101512.23;110222;1264;22499;-41
2023/07/07 05:21:43;;;;;;;;;16.00;14.00;;;;;20.91;57.34;101513.41;110197;1256;20011;-41
2023/07/07 05:24:11;;;;;;;;;16.00;14.00;;;;;20.98;57.40;101514.69;110250;1265;18703;-41
2023/07/07 05:26:38;;;;;;;;;16.00;14.00;;;;;21.07;57.21;101516.15;110186;1250;21717;-41
2023/07/07 05:29:05;;;;;;;;;17.00;17.00;;;;;21.10;57.19;101514.70;110177;1257;21245;-41
2023/07/07 05:31:33;;;;;;;;;16.00;16.00;;;;;21.16;57.06;101515.70;110228;1257;19938;-41
2023/07/07 05:34:00;;;;;;;;;18.00;17.00;;;;;21.26;56.83;101520.86;110234;1250;20804;-41
2023/07/07 05:36:28;;;;;;;;;16.50;15.00;;;;;21.38;56.72;101522.19;110100;1249;21617;-40
2023/07/07 05:38:55;;;;;;;;;14.00;14.00;;;;;21.64;56.43;101523.07;110243;1256;23969;-41
2023/07/07 05:41:23;;;;;;;;;26.00;24.00;;;;;21.92;56.03;101525.05;110161;1264;19366;-41
2023/07/07 05:43:50;;;;;;;;;22.00;21.00;;;;;22.15;55.58;101529.30;110230;1250;18588;-41
2023/07/07 05:46:18;;;;;;;;;22.50;21.50;;;;;22.26;55.50;101531.42;110196;1264;18891;-41
2023/07/07 05:48:46;;;;;;;;;17.67;17.33;;;;;22.13;55.72;101529.71;110077;1264;19325;-41
2023/07/07 05:51:13;;;;;;;;;17.67;16.33;;;;;22.00;55.96;101530.80;110247;1264;18574;-40
2023/07/07 05:53:42;;;;;;;;;15.00;14.33;;;;;22.10;55.93;101531.70;110157;1264;18861;-41
2023/07/07 05:56:10;;;;;;;;;13.00;13.00;;;;;22.28;55.60;101531.35;110214;1264;19362;-41
2023/07/07 05:58:37;;;;;;;;;12.00;12.00;;;;;22.37;55.42;101534.38;110179;1265;20227;-41
2023/07/07 06:01:05;;;;;;;;;15.00;14.00;;;;;22.28;55.13;101532.08;110197;1250;20163;-40
2023/07/07 06:03:33;;;;;;;;;13.50;13.00;;;;;22.05;55.50;101535.81;110128;1257;19363;-41
2023/07/07 06:06:00;;;;;;;;;15.50;15.50;;;;;21.95;56.06;101538.39;110183;1264;20297;-42
2023/07/07 06:08:27;;;;;;;;;17.00;17.00;;;;;21.93;56.33;101537.70;110167;1264;19050;-40
2023/07/07 06:10:55;;;;;;;;;18.67;17.00;;;;;21.94;56.41;101541.30;110232;1256;20727;-41
2023/07/07 06:13:23;;;;;;;;;15.00;15.00;;;;;21.96;56.18;101539.77;110199;1264;22619;-40
2023/07/07 06:15:52;;;;;;;;;17.00;15.00;;;;;22.04;56.17;101542.70;110231;1257;20057;-40
2023/07/07 06:18:19;;;;;;;;;14.50;14.00;;;;;22.01;56.05;101542.31;110123;1264;22748;-40
2023/07/07 06:20:46;;;;;;;;;17.00;15.00;;;;;22.06;55.85;101548.27;110207;1250;20282;-40
2023/07/07 06:23:14;;;;;;;;;18.00;15.00;;;;;22.10;55.53;101549.30;110259;1250;18811;-40
2023/07/07 06:25:41;;;;;;;;;12.00;12.00;;;;;22.14;55.59;101554.74;110271;1264;20882;-40
2023/07/07 06:28:09;;;;;;;;;15.67;15.00;;;;;22.21;55.36;101553.31;110252;1259;18587;-40
2023/07/07 06:30:36;;;;;;;;;16.00;14.00;;;;;22.22;55.31;101559.54;110243;1265;19984;-40
2023/07/07 06:33:04;;;;;;;;;12.00;12.00;;;;;22.26;55.20;101558.52;110187;1265;19644;-40
2023/07/07 06:35:31;;;;;;;;;18.00;15.00;;;;;22.27;54.88;101561.73;110184;1264;18649;-40
2023/07/07 06:37:59;;;;;;;;;13.00;12.00;;;;;22.31;54.68;101555.30;110256;1250;22204;-40
2023/07/07 06:40:26;;;;;;;;;16.00;15.00;;;;;22.31;54.69;101554.34;110214;1250;20792;-40
2023/07/07 06:42:55;;;;;;;;;14.00;14.00;;;;;22.38;54.93;101553.53;110296;1250;21413;-40
2023/07/07 06:45:22;;;;;;;;;16.00;15.00;;;;;22.46;55.03;101559.66;110116;1264;20086;-39
2023/07/07 06:47:50;;;;;;;;;18.00;16.00;;;;;22.56;55.32;101554.89;110189;1264;19310;-41
2023/07/07 06:50:17;;;;;;;;;17.00;15.50;;;;;22.59;55.64;101557.21;110236;1250;21269;-40
2023/07/07 06:52:45;;;;;;;;;19.00;18.00;;;;;22.64;55.92;101554.70;110221;1264;18596;-42
2023/07/07 06:55:13;;;;;;;;;16.67;15.33;;;;;22.68;56.06;101556.33;110235;1251;18977;-40
2023/07/07 06:57:40;;;;;;;;;16.00;15.50;;;;;22.73;55.96;101559.04;110231;1265;22262;-39
2023/07/07 07:00:07;;;;;;;;;15.00;14.50;;;;;22.75;55.68;101557.20;110143;1264;18841;-40
2023/07/07 07:02:35;;;;;;;;;18.00;16.00;;;;;22.77;55.58;101554.77;110095;1249;168083;-42
2023/07/07 07:05:02;;;;;;;;;16.00;16.00;;;;;22.84;55.44;101556.69;110188;1257;19897;-40
2023/07/07 07:07:30;;;;;;;;;14.67;14.67;;;;;22.91;55.28;101556.09;110206;1250;20081;-40
2023/07/07 07:09:57;;;;;;;;;14.50;13.00;;;;;22.97;54.85;101560.21;110266;1264;19384;-40
2023/07/07 07:12:25;;;;;;;;;13.00;13.00;;;;;23.00;54.43;101560.10;110273;1257;19941;-40
2023/07/07 07:14:52;;;;;;;;;12.50;12.00;;;;;22.97;53.92;101560.48;110240;1250;22838;-40
2023/07/07 07:17:20;;;;;;;;;15.00;13.50;;;;;23.08;53.80;101560.80;110261;1264;19364;-40
2023/07/07 07:19:48;;;;;;;;;15.00;13.00;;;;;23.13;53.34;101557.98;110228;1250;20069;-41
2023/07/07 07:22:15;;;;;;;;;13.50;13.00;;;;;23.15;53.21;101558.67;110201;1256;20179;-40
2023/07/07 07:24:43;;;;;;;;;12.33;12.33;;;;;23.19;52.84;101560.78;110171;1250;20771;-42
2023/07/07 07:27:10;;;;;;;;;15.00;13.00;;;;;23.28;52.59;101556.40;110257;1256;20097;-41
2023/07/07 07:29:37;;;;;;;;;13.00;12.00;;;;;23.24;52.14;101556.94;110178;1250;20144;-41
2023/07/07 07:32:05;;;;;;;;;13.00;11.00;;;;;23.17;51.63;101558.61;110182;1256;19617;-40
2023/07/07 07:34:32;;;;;;;;;14.00;13.00;;;;;23.18;51.28;101561.71;110208;1264;18591;-40
2023/07/07 07:37:00;;;;;;;;;12.00;12.00;;;;;23.33;50.67;101564.39;110188;1265;22238;-41
2023/07/07 07:39:27;;;;;;;;;12.50;11.50;;;;;23.33;50.01;101568.93;110189;1256;19232;-41
2023/07/07 07:41:54;;;;;;;;;11.00;11.00;;;;;23.36;49.58;101573.05;110174;1250;21061;-43
2023/07/07 07:44:22;;;;;;;;;12.00;11.00;;;;;23.43;49.69;101568.02;110225;1264;18845;-41
2023/07/07 07:46:49;;;;;;;;;12.00;11.00;;;;;23.46;49.35;101568.62;110244;1250;20835;-41
2023/07/07 07:49:17;;;;;;;;;9.00;9.00;;;;;23.53;48.78;101570.25;110236;1257;22198;-41
2023/07/07 07:51:44;;;;;;;;;12.00;10.00;;;;;23.59;48.42;101571.38;110100;1264;18834;-40
2023/07/07 07:54:11;;;;;;;;;9.00;9.00;;;;;23.57;48.32;101574.48;110224;1264;22322;-41
2023/07/07 07:56:39;;;;;;;;;9.00;9.00;;;;;23.62;48.41;101575.23;110262;1250;20062;-41
2023/07/07 07:59:06;;;;;;;;;10.00;10.00;;;;;23.66;48.26;101574.42;110263;1264;19655;-42
2023/07/07 08:01:34;;;;;;;;;10.00;10.00;;;;;23.61;48.64;101572.20;110260;1249;20762;-41
2023/07/07 08:04:01;;;;;;;;;10.00;9.33;;;;;23.66;48.45;101575.88;110054;1264;18900;-40
2023/07/07 08:06:29;;;;;;;;;10.00;10.00;;;;;23.67;47.90;101578.73;110214;1251;19993;-40
2023/07/07 08:08:56;;;;;;;;;8.00;8.00;;;;;23.68;47.41;101583.06;110133;1250;20788;-40
2023/07/07 08:11:24;;;;;;;;;8.00;7.00;;;;;23.72;46.79;101580.19;110213;1264;19941;-39
2023/07/07 08:13:52;;;;;;;;;8.50;8.50;;;;;23.81;46.03;101573.52;110215;1264;20116;-40
2023/07/07 08:16:20;;;;;;;;;8.00;8.00;;;;;23.73;45.70;101578.88;110231;1253;20788;-40
2023/07/07 08:18:48;;;;;;;;;8.00;8.00;;;;;23.63;45.33;101580.61;110047;1256;19868;-41
2023/07/07 08:21:15;;;;;;;;;6.00;6.00;;;;;23.62;44.60;101578.12;110120;1250;21479;-41
2023/07/07 08:23:43;;;;;;;;;8.00;8.00;;;;;23.67;43.97;101573.73;110206;1265;20777;-40
2023/07/07 08:26:10;;;;;;;;;6.00;6.00;;;;;23.74;43.34;101574.66;110179;1249;22626;-41
2023/07/07 08:28:38;;;;;;;;;7.00;7.00;;;;;23.74;42.80;101571.21;110131;1250;18607;-41
2023/07/07 08:31:05;;;;;;;;;6.00;6.00;;;;;23.81;42.74;101577.08;110237;1264;20753;-40
2023/07/07 08:33:33;;;;;;;;;9.00;9.00;;;;;23.88;42.95;101578.77;110242;1265;19592;-40
2023/07/07 08:36:00;;;;;;;;;9.00;8.00;;;;;23.92;42.86;101582.26;110266;1264;19951;-41
2023/07/07 08:38:28;;;;;;;;;39.00;29.00;;;;;23.94;42.88;101580.48;110209;1251;20821;-39
2023/07/07 08:40:55;;;;;;;;;465.33;463.00;;;;;23.91;42.83;101580.48;110110;1264;18397;-39
2023/07/07 08:43:22;;;;;;;;;21.00;18.00;;;;;23.93;42.71;101576.42;110116;1264;22827;-40
2023/07/07 08:45:50;;;;;;;;;19.00;14.00;;;;;23.94;42.84;101577.42;110192;1264;19333;-39
2023/07/07 08:48:17;;;;;;;;;12.00;10.00;;;;;23.97;42.55;101577.55;110225;1250;22831;-38
2023/07/07 08:50:45;;;;;;;;;9.00;9.00;;;;;23.95;42.29;101580.77;110228;1265;20395;-40
2023/07/07 08:53:13;;;;;;;;;12.00;10.00;;;;;23.94;41.71;101580.85;110171;1264;20597;-39
2023/07/07 08:55:41;;;;;;;;;9.00;8.50;;;;;24.00;41.57;101583.67;110240;1265;19838;-38
2023/07/07 08:58:08;;;;;;;;;8.67;8.33;;;;;24.01;41.69;101582.94;110191;1264;20314;-39
2023/07/07 09:00:35;;;;;;;;;8.00;8.00;;;;;24.00;41.54;101583.98;110208;1264;20851;-39
2023/07/07 09:03:03;;;;;;;;;10.00;9.00;;;;;24.07;41.35;101578.42;110198;1264;18544;-39
2023/07/07 09:05:31;;;;;;;;;8.00;8.00;;;;;24.15;41.15;101577.26;110194;1264;20388;-39
2023/07/07 09:07:58;;;;;;;;;15.00;13.50;;;;;24.17;40.90;101575.67;110124;1264;20860;-39
2023/07/07 09:10:26;;;;;;;;;37.00;29.00;;;;;24.17;40.89;101575.18;110229;1264;19622;-40
2023/07/07 09:12:53;;;;;;;;;55.00;40.00;;;;;24.19;41.04;101572.52;110229;1250;21669;-40
2023/07/07 09:15:21;;;;;;;;;55.50;43.00;;;;;24.21;41.24;101575.50;110192;1265;21989;-41
2023/07/07 09:17:48;;;;;;;;;37.50;30.50;;;;;24.27;41.24;101570.03;110180;1264;18932;-41
2023/07/07 09:20:16;;;;;;;;;28.50;25.00;;;;;24.33;41.03;101568.66;110175;1257;18598;-39
2023/07/07 09:22:43;;;;;;;;;26.50;22.50;;;;;24.36;41.19;101571.27;110180;1264;19305;-40
2023/07/07 09:25:11;;;;;;;;;23.00;18.50;;;;;24.33;41.27;101567.16;110136;1264;22150;-40
2023/07/07 09:27:38;;;;;;;;;18.00;16.00;;;;;24.29;40.98;101567.08;110221;1249;18829;-41
2023/07/07 09:30:05;;;;;;;;;13.00;12.50;;;;;24.23;40.51;101567.27;110164;1250;20843;-39
2023/07/07 09:32:33;;;;;;;;;13.00;12.00;;;;;24.19;40.56;101569.73;110138;1264;18809;-41
2023/07/07 09:35:00;;;;;;;;;13.00;12.50;;;;;24.15;40.74;101572.64;110173;1250;22348;-39
2023/07/07 09:37:28;;;;;;;;;13.00;12.00;;;;;24.33;40.09;101567.38;110152;1250;22642;-39
2023/07/07 09:39:55;;;;;;;;;8.00;8.00;;;;;24.33;39.70;101570.08;110142;1257;19728;-39
2023/07/07 09:42:23;;;;;;;;;12.00;10.00;;;;;24.36;39.30;101572.48;110125;1256;19606;-39
2023/07/07 09:44:50;;;;;;;;;11.00;9.00;;;;;24.24;39.33;101570.46;110171;1250;19354;-40
2023/07/07 09:47:18;;;;;;;;;8.00;8.00;;;;;24.11;39.82;101575.22;110229;1249;20034;-40
2023/07/07 09:49:45;;;;;;;;;12.00;10.00;;;;;24.06;40.39;101572.73;110181;1265;20364;-41
2023/07/07 09:52:13;;;;;;;;;9.00;8.00;;;;;24.02;40.63;101575.71;110139;1249;20757;-41
2023/07/07 09:54:40;;;;;;;;;8.00;8.00;;;;;24.03;40.65;101567.94;110196;1264;18926;-39
2023/07/07 09:57:08;;;;;;;;;6.00;6.00;;;;;24.03;40.58;101573.59;110200;1264;18610;-39
2023/07/07 09:59:35;;;;;;;;;9.00;8.00;;;;;24.05;40.58;101569.58;110200;1265;20921;-40
2023/07/07 10:02:03;;;;;;;;;9.00;8.00;;;;;24.23;39.98;101567.28;110173;1250;19551;-39
2023/07/07 10:04:31;;;;;;;;;8.50;8.50;;;;;24.36;39.04;101567.56;110150;1265;21577;-40
2023/07/07 10:06:58;;;;;;;;;8.50;8.50;;;;;24.33;38.90;101566.13;110215;1264;21018;-39
2023/07/07 10:09:28;;;;;;;;;8.00;8.00;;;;;24.23;39.55;101564.47;110227;1264;20118;-38
2023/07/07 10:11:56;;;;;;;;;9.00;8.00;;;;;24.15;39.94;101565.79;110258;1249;18629;-38
2023/07/07 10:14:23;;;;;;;;;6.00;5.00;;;;;24.06;40.22;101567.23;110277;1264;19602;-39
2023/07/07 10:16:51;;;;;;;;;9.00;8.00;;;;;24.08;40.06;101566.27;110202;1250;18314;-39
2023/07/07 10:19:19;;;;;;;;;8.00;6.00;;;;;24.22;39.85;101556.36;110324;1264;19997;-38
2023/07/07 10:21:46;;;;;;;;;9.00;9.00;;;;;24.18;40.03;101563.09;110251;1249;20789;-37
2023/07/07 10:24:14;;;;;;;;;6.00;6.00;;;;;24.33;39.80;101553.36;110240;1264;19529;-39
2023/07/07 10:26:42;;;;;;;;;9.00;8.00;;;;;24.23;39.94;101552.95;110253;1251;18910;-37
2023/07/07 10:29:10;;;;;;;;;8.00;8.00;;;;;24.23;40.11;101554.13;110250;1265;20692;-38
2023/07/07 10:31:37;;;;;;;;;9.00;9.00;;;;;24.30;39.97;101554.05;110225;1265;19505;-39
2023/07/07 10:34:05;;;;;;;;;8.00;8.00;;;;;24.33;39.83;101552.04;110232;1264;18901;-39
2023/07/07 10:36:32;;;;;;;;;8.50;8.00;;;;;24.37;39.58;101544.83;110098;1264;19793;-38
2023/07/07 10:39:00;;;;;;;;;9.00;9.00;;;;;24.32;39.84;101545.46;110183;1250;18651;-39
2023/07/07 10:41:27;;;;;;;;;9.00;9.00;;;;;24.30;39.90;101549.05;110249;1264;20110;-38
2023/07/07 10:43:55;;;;;;;;;9.50;8.50;;;;;24.34;39.85;101548.42;110234;1250;22779;-38
2023/07/07 10:46:23;;;;;;;;;8.00;8.00;;;;;24.28;40.17;101548.76;110193;1264;22696;-38
2023/07/07 10:48:50;;;;;;;;;9.00;9.00;;;;;24.20;40.42;101544.18;110189;1249;20016;-38
2023/07/07 10:51:17;;;;;;;;;8.00;8.00;;;;;24.17;40.30;101550.60;110255;1256;19336;-38
2023/07/07 10:53:45;;;;;;;;;6.00;6.00;;;;;24.17;40.04;101542.21;110230;1264;18415;-39
2023/07/07 10:56:12;;;;;;;;;7.00;7.00;;;;;24.20;40.10;101546.00;110248;1264;20003;-39
2023/07/07 10:58:40;;;;;;;;;8.00;8.00;;;;;24.20;40.20;101546.27;110214;1249;20853;-39
2023/07/07 11:01:07;;;;;;;;;8.00;8.00;;;;;24.22;40.07;101542.73;110214;1265;22663;-38
2023/07/07 11:03:34;;;;;;;;;7.00;7.00;;;;;24.23;40.06;101544.74;110260;1250;20274;-39
2023/07/07 11:06:02;;;;;;;;;8.00;8.00;;;;;24.22;39.97;101545.40;110213;1265;19683;-39